Time;durP1;ratioP1;P1;durP2;ratioP2;P2;SDS_P1;SDS_P2;PMS_P1;PMS_P2;Temp;Humidity;BMP_temperature;BMP_pressure;BME280_temperature;BME280_humidity;BME280_pressure;Samples;Min_cycle;Max_cycle;Signal;HPM_P1;HPM_P2
2023/07/08 03:18:48;;;;;;;6.97;2.67;;;21.60;67.30;;;;;;6083664;23;88553;-66
2023/07/08 03:21:16;;;;;;;6.22;2.53;;;21.50;67.80;;;;;;6096851;23;89535;-66
2023/07/08 03:23:42;;;;;;;7.65;2.55;;;21.40;67.90;;;;;;6095875;23;87001;-66
2023/07/08 03:26:14;;;;;;;7.70;2.47;;;21.40;67.70;;;;;;6096752;23;87893;-67
2023/07/08 03:28:40;;;;;;;8.23;2.85;;;21.40;68.40;;;;;;6097237;23;87721;-68
2023/07/08 03:31:09;;;;;;;6.88;2.28;;;21.40;68.00;;;;;;6098046;23;87518;-67
2023/07/08 03:33:34;;;;;;;13.02;2.72;;;21.40;68.90;;;;;;6098109;23;87253;-68
2023/07/08 03:36:02;;;;;;;10.30;2.22;;;21.30;68.60;;;;;;6098161;23;86728;-67
2023/07/08 03:38:27;;;;;;;12.05;2.38;;;21.30;68.00;;;;;;6098774;23;87727;-66
2023/07/08 03:40:53;;;;;;;8.68;2.03;;;21.40;69.30;;;;;;6097939;23;87949;-66
2023/07/08 03:43:19;;;;;;;11.23;2.53;;;21.40;68.30;;;;;;6098464;23;88355;-67
2023/07/08 03:45:45;;;;;;;8.30;2.80;;;21.40;68.90;;;;;;6099151;23;87450;-66
2023/07/08 03:48:11;;;;;;;9.38;2.33;;;21.40;69.40;;;;;;6097020;23;91298;-67
2023/07/08 03:50:38;;;;;;;6.68;2.47;;;21.30;69.40;;;;;;6098682;23;87695;-66
2023/07/08 03:53:03;;;;;;;8.70;2.42;;;21.30;68.70;;;;;;6086408;23;87349;-66
2023/07/08 03:55:29;;;;;;;7.63;2.45;;;21.30;68.50;;;;;;6098679;23;87347;-66
2023/07/08 03:57:55;;;;;;;8.30;2.40;;;21.30;68.70;;;;;;6098114;23;88022;-67
2023/07/08 04:00:21;;;;;;;6.53;2.10;;;21.40;69.20;;;;;;6098334;23;88256;-66
2023/07/08 04:02:47;;;;;;;7.45;2.33;;;21.40;68.10;;;;;;6098700;23;87502;-66
2023/07/08 04:05:21;;;;;;;14.77;2.30;;;21.50;67.30;;;;;;6099415;23;87456;-67
2023/07/08 04:07:47;;;;;;;13.50;2.53;;;21.50;66.50;;;;;;6097715;23;89263;-66
2023/07/08 04:10:13;;;;;;;8.43;2.60;;;21.60;66.00;;;;;;6097625;23;88804;-67
2023/07/08 04:12:40;;;;;;;7.50;2.33;;;21.60;66.50;;;;;;6098754;23;87600;-67
2023/07/08 04:15:08;;;;;;;5.78;1.90;;;21.60;67.50;;;;;;6098890;23;87498;-66
2023/07/08 04:17:57;;;;;;;6.68;2.28;;;21.60;67.30;;;;;;6116957;23;89976;-67
2023/07/08 04:20:23;;;;;;;5.93;1.92;;;21.60;67.30;;;;;;6127847;23;87420;-67
2023/07/08 04:22:49;;;;;;;9.30;2.17;;;21.70;66.70;;;;;;6128221;23;86915;-67
2023/07/08 04:25:15;;;;;;;8.63;2.67;;;21.70;66.60;;;;;;6126725;23;86629;-67
2023/07/08 04:27:41;;;;;;;10.20;2.22;;;21.70;65.60;;;;;;6125979;23;87933;-67
2023/07/08 04:30:09;;;;;;;8.68;2.13;;;21.80;65.20;;;;;;6124991;23;87889;-68
2023/07/08 04:32:37;;;;;;;10.05;2.25;;;21.80;65.30;;;;;;6123762;23;88572;-68
2023/07/08 04:35:03;;;;;;;6.40;2.33;;;21.90;64.70;;;;;;6121963;23;87431;-67
2023/07/08 04:37:29;;;;;;;7.03;2.03;;;22.00;64.50;;;;;;6125713;23;88516;-68
2023/07/08 04:39:54;;;;;;;7.00;2.20;;;22.00;64.30;;;;;;6123576;23;88415;-68
2023/07/08 04:42:20;;;;;;;10.35;2.05;;;22.00;64.00;;;;;;6124517;23;87467;-68
2023/07/08 04:44:46;;;;;;;6.43;2.05;;;22.00;64.70;;;;;;6127103;23;87263;-68
2023/07/08 04:47:13;;;;;;;8.75;2.50;;;21.90;64.20;;;;;;6126850;23;87722;-68
2023/07/08 04:49:40;;;;;;;9.02;2.22;;;22.00;64.60;;;;;;6125149;23;87511;-69
2023/07/08 04:52:06;;;;;;;10.18;2.70;;;21.90;65.60;;;;;;6127417;23;87313;-67
2023/07/08 04:54:32;;;;;;;9.18;2.60;;;21.90;65.50;;;;;;6128179;23;87430;-68
2023/07/08 04:56:57;;;;;;;7.72;2.53;;;21.80;65.50;;;;;;6127020;23;88754;-68
2023/07/08 04:59:25;;;;;;;10.13;2.38;;;21.90;65.90;;;;;;6124440;23;89549;-68
2023/07/08 05:01:52;;;;;;;9.10;2.60;;;21.90;66.30;;;;;;6126446;23;87535;-68
2023/07/08 05:04:20;;;;;;;7.82;2.55;;;22.00;65.90;;;;;;6126710;23;87483;-67
2023/07/08 05:06:47;;;;;;;11.40;2.90;;;22.20;66.20;;;;;;6127607;23;87267;-68
2023/07/08 05:09:12;;;;;;;7.47;2.20;;;22.30;65.90;;;;;;6127672;23;88321;-67
2023/07/08 05:11:38;;;;;;;10.48;2.13;;;22.30;64.90;;;;;;6128126;23;87829;-64
2023/07/08 05:14:04;;;;;;;7.50;2.25;;;22.50;64.20;;;;;;6128789;23;86620;-66
2023/07/08 05:16:33;;;;;;;5.03;1.67;;;22.70;63.10;;;;;;6127305;23;89073;-66
2023/07/08 05:18:59;;;;;;;10.95;2.08;;;22.90;61.80;;;;;;6127598;23;87736;-67
2023/07/08 05:21:27;;;;;;;7.05;2.20;;;23.00;62.30;;;;;;6126593;23;88153;-67
2023/07/08 05:23:53;;;;;;;5.38;1.88;;;23.20;63.30;;;;;;6126955;23;87475;-68
2023/07/08 05:26:19;;;;;;;7.13;1.75;;;23.40;63.00;;;;;;6127142;23;87995;-67
2023/07/08 05:28:45;;;;;;;6.32;1.35;;;23.60;61.70;;;;;;6128137;23;87388;-67
2023/07/08 05:31:11;;;;;;;6.15;1.67;;;23.80;59.00;;;;;;6127980;23;87322;-67
2023/07/08 05:33:36;;;;;;;7.30;1.77;;;24.00;59.00;;;;;;6127576;23;87253;-67
2023/07/08 05:36:02;;;;;;;7.00;1.65;;;24.30;58.10;;;;;;6126325;23;87841;-67
2023/07/08 05:38:28;;;;;;;7.85;1.80;;;24.50;57.30;;;;;;6126964;23;87560;-68
2023/07/08 05:40:55;;;;;;;7.72;1.77;;;24.80;57.20;;;;;;6127839;23;87331;-67
2023/07/08 05:43:21;;;;;;;6.45;2.00;;;24.90;57.50;;;;;;6128684;23;87414;-68
2023/07/08 05:45:47;;;;;;;6.45;1.77;;;25.20;56.50;;;;;;6127253;23;89544;-67
2023/07/08 05:48:13;;;;;;;5.78;1.50;;;25.50;55.10;;;;;;6127358;23;88929;-68
2023/07/08 05:50:40;;;;;;;6.47;1.90;;;25.80;55.70;;;;;;6127905;23;87283;-67
2023/07/08 05:53:05;;;;;;;5.70;1.92;;;26.10;56.40;;;;;;6129007;23;87407;-67
2023/07/08 05:55:32;;;;;;;5.45;2.03;;;26.40;56.40;;;;;;6127787;23;87426;-67
2023/07/08 05:57:58;;;;;;;7.90;2.13;;;26.50;55.70;;;;;;6127124;23;88306;-68
2023/07/08 06:00:23;;;;;;;5.72;1.88;;;26.70;57.20;;;;;;6127500;23;87310;-66
2023/07/08 06:02:49;;;;;;;6.70;2.33;;;27.00;55.60;;;;;;6126232;23;86856;-67
2023/07/08 06:05:15;;;;;;;6.32;2.10;;;26.90;54.50;;;;;;6124492;23;87429;-67
2023/07/08 06:07:40;;;;;;;9.73;2.08;;;26.90;54.50;;;;;;6124922;23;87474;-66
2023/07/08 06:10:07;;;;;;;10.10;2.53;;;26.80;55.40;;;;;;6124460;23;88127;-66
2023/07/08 06:12:33;;;;;;;4.82;1.90;;;26.80;55.80;;;;;;6127452;23;87601;-67
2023/07/08 06:14:58;;;;;;;9.25;1.92;;;26.80;56.40;;;;;;6117156;23;88223;-70
2023/07/08 06:17:24;;;;;;;5.00;2.03;;;26.70;55.50;;;;;;6117931;23;87626;-70
2023/07/08 06:19:50;;;;;;;11.00;2.03;;;26.70;57.50;;;;;;6119297;23;87582;-71
2023/07/08 06:22:16;;;;;;;9.00;2.42;;;26.90;57.60;;;;;;6119812;23;87370;-70
2023/07/08 06:24:41;;;;;;;16.02;2.20;;;27.00;57.00;;;;;;6121779;23;87821;-70
2023/07/08 06:27:07;;;;;;;6.05;1.88;;;27.00;56.70;;;;;;6121812;23;88301;-68
2023/07/08 06:29:34;;;;;;;10.18;2.20;;;27.20;54.90;;;;;;6118759;23;87483;-70
2023/07/08 06:32:00;;;;;;;11.80;1.70;;;27.10;56.10;;;;;;6117892;23;87622;-70
2023/07/08 06:34:26;;;;;;;6.15;2.08;;;27.10;56.70;;;;;;6124689;23;89591;-69
2023/07/08 06:36:51;;;;;;;10.93;2.25;;;27.10;57.20;;;;;;6125890;23;88303;-69
2023/07/08 06:39:18;;;;;;;11.88;1.88;;;26.90;57.50;;;;;;6122496;23;87317;-70
2023/07/08 06:41:44;;;;;;;9.43;2.08;;;27.10;57.30;;;;;;6111125;23;87651;-69
2023/07/08 06:44:10;;;;;;;6.45;1.92;;;27.40;57.10;;;;;;6115915;23;87590;-69
2023/07/08 06:46:36;;;;;;;6.70;2.30;;;27.60;56.80;;;;;;6113922;23;88478;-69
2023/07/08 06:49:02;;;;;;;6.68;2.35;;;27.40;59.30;;;;;;6113284;23;87607;-69
2023/07/08 06:51:27;;;;;;;8.23;2.60;;;27.10;58.20;;;;;;6121009;23;86891;-69
2023/07/08 06:53:53;;;;;;;7.63;2.17;;;27.10;57.60;;;;;;6122988;23;88841;-69
2023/07/08 06:56:19;;;;;;;6.88;2.40;;;27.20;58.40;;;;;;6123940;23;87875;-69
2023/07/08 06:58:45;;;;;;;13.60;3.20;;;27.20;59.40;;;;;;6118962;23;87965;-69
2023/07/08 07:01:11;;;;;;;7.30;2.17;;;27.00;59.00;;;;;;6118842;23;87487;-69
2023/07/08 07:03:37;;;;;;;14.88;2.80;;;27.20;59.20;;;;;;6122123;23;87552;-69
2023/07/08 07:06:03;;;;;;;5.97;2.50;;;27.40;57.80;;;;;;6119085;23;87801;-67
2023/07/08 07:08:28;;;;;;;6.80;2.50;;;27.30;57.20;;;;;;6121904;23;87630;-73
2023/07/08 07:10:54;;;;;;;9.90;2.17;;;27.50;58.30;;;;;;6121975;23;87683;-74
2023/07/08 07:13:20;;;;;;;11.15;2.10;;;27.90;57.10;;;;;;6117397;23;87569;-75
2023/07/08 07:15:48;;;;;;;8.20;3.20;;;28.40;55.80;;;;;;6117263;23;87079;-74
2023/07/08 07:18:14;;;;;;;7.75;2.72;;;28.50;53.50;;;;;;6121660;23;87480;-73
2023/07/08 07:20:49;;;;;;;7.18;2.72;;;28.10;54.10;;;;;;6120518;23;87099;-73
2023/07/08 07:23:15;;;;;;;6.15;2.30;;;28.10;55.00;;;;;;6121363;23;90062;-74
2023/07/08 07:25:41;;;;;;;6.38;2.20;;;28.20;55.60;;;;;;6124917;23;88052;-74
2023/07/08 07:28:06;;;;;;;7.18;2.17;;;28.10;54.30;;;;;;6126324;23;87346;-73
2023/07/08 07:30:32;;;;;;;5.90;2.17;;;28.10;53.80;;;;;;6126885;23;87321;-73
2023/07/08 07:33:01;;;;;;;8.55;2.85;;;28.40;54.10;;;;;;6100778;23;88556;-74
2023/07/08 07:35:27;;;;;;;10.45;2.63;;;29.20;53.20;;;;;;6124711;23;91219;-73
2023/07/08 07:37:53;;;;;;;7.43;2.70;;;29.90;53.00;;;;;;6126151;23;87349;-69
2023/07/08 07:40:18;;;;;;;6.72;2.55;;;30.90;50.20;;;;;;6125877;23;87187;-69
2023/07/08 07:42:46;;;;;;;6.78;2.60;;;31.60;49.30;;;;;;6127564;23;87911;-70
2023/07/08 07:45:13;;;;;;;7.18;2.40;;;33.80;47.30;;;;;;6126853;23;88490;-68
2023/07/08 07:47:39;;;;;;;5.18;2.50;;;34.10;44.80;;;;;;6119607;23;88453;-70
2023/07/08 07:50:07;;;;;;;5.97;2.20;;;33.90;45.00;;;;;;6124251;23;87032;-69
2023/07/08 07:52:33;;;;;;;6.72;2.42;;;33.10;44.50;;;;;;6123624;23;87592;-69
2023/07/08 07:54:58;;;;;;;4.80;2.28;;;32.30;44.00;;;;;;6122749;23;88602;-69
2023/07/08 07:57:25;;;;;;;8.18;2.28;;;32.30;45.20;;;;;;6123955;23;87654;-70
2023/07/08 07:59:51;;;;;;;7.38;2.70;;;32.10;46.00;;;;;;6119673;23;87189;-71
2023/07/08 08:02:17;;;;;;;7.05;1.88;;;32.00;46.60;;;;;;6112481;23;87900;-73
2023/07/08 08:04:43;;;;;;;5.93;1.85;;;32.00;45.80;;;;;;6096125;23;88379;-74
2023/07/08 08:07:09;;;;;;;5.05;2.35;;;32.10;44.90;;;;;;6122973;23;87367;-79
2023/07/08 08:09:36;;;;;;;4.35;1.98;;;33.80;44.40;;;;;;6124833;23;87011;-82
2023/07/08 08:12:03;;;;;;;5.05;2.13;;;35.70;41.60;;;;;;6124391;23;88905;-74
2023/07/08 08:14:28;;;;;;;4.10;2.15;;;35.60;40.70;;;;;;6121120;23;88120;-74
2023/07/08 08:16:54;;;;;;;5.07;1.92;;;34.40;41.70;;;;;;6116286;23;87433;-69
2023/07/08 08:19:20;;;;;;;7.22;2.15;;;33.10;43.00;;;;;;6118130;23;87510;-67
2023/07/08 08:21:46;;;;;;;7.47;2.15;;;32.40;45.20;;;;;;6116882;23;87837;-71
2023/07/08 08:24:11;;;;;;;6.10;1.83;;;32.90;44.90;;;;;;6117292;23;87489;-71
2023/07/08 08:26:37;;;;;;;3.50;1.77;;;32.20;45.20;;;;;;6114874;23;87626;-66
2023/07/08 08:29:03;;;;;;;4.85;1.50;;;31.60;47.50;;;;;;6116998;23;86928;-58
2023/07/08 08:31:30;;;;;;;5.43;1.60;;;31.10;48.10;;;;;;6115783;23;88648;-57
2023/07/08 08:33:56;;;;;;;4.30;1.63;;;30.90;47.70;;;;;;6116714;23;88185;-58
2023/07/08 08:36:22;;;;;;;3.67;1.83;;;31.20;47.90;;;;;;6115448;23;88185;-59
2023/07/08 08:38:48;;;;;;;6.03;1.40;;;31.40;47.90;;;;;;6115607;23;87567;-57
2023/07/08 08:41:19;;;;;;;4.85;1.60;;;31.60;47.80;;;;;;6115225;23;88116;-57
2023/07/08 08:43:47;;;;;;;6.53;1.73;;;31.50;47.10;;;;;;6117113;23;88008;-58
2023/07/08 08:46:27;;;;;;;4.15;1.63;;;32.20;46.50;;;;;;6125032;23;87420;-57
2023/07/08 08:49:10;;;;;;;4.20;1.77;;;32.30;46.00;;;;;;6126110;23;87523;-56
2023/07/08 08:51:36;;;;;;;4.40;1.20;;;32.20;46.40;;;;;;6125470;23;87595;-52
2023/07/08 08:54:02;;;;;;;3.45;2.35;;;32.50;46.20;;;;;;6125083;23;87088;-53
2023/07/08 08:56:29;;;;;;;2.30;1.48;;;32.50;45.70;;;;;;6117863;23;87411;-53
2023/07/08 08:59:36;;;;;;;3.53;1.17;;;33.10;46.00;;;;;;6116990;23;87518;-51
2023/07/08 09:02:30;;;;;;;3.70;1.05;;;33.30;45.00;;;;;;6115098;23;89567;-51
2023/07/08 09:05:01;;;;;;;4.15;1.63;;;34.00;44.20;;;;;;6114355;23;87992;-55
2023/07/08 09:07:30;;;;;;;1.90;1.08;;;35.70;42.80;;;;;;6114211;23;87857;-51
2023/07/08 09:10:15;;;;;;;2.47;1.50;;;35.30;42.20;;;;;;6116898;23;87391;-54
2023/07/08 09:12:41;;;;;;;4.25;2.03;;;36.90;42.00;;;;;;6117585;23;88751;-55
2023/07/08 09:15:14;;;;;;;3.92;2.30;;;38.00;40.30;;;;;;6116804;23;87697;-53
2023/07/08 09:17:40;;;;;;;5.35;2.22;;;39.10;38.60;;;;;;6116391;23;87909;-51
2023/07/08 09:20:12;;;;;;;2.60;1.58;;;39.80;38.80;;;;;;6116004;23;86784;-53
2023/07/08 09:22:56;;;;;;;3.20;2.45;;;39.50;37.90;;;;;;6115251;23;88020;-53
2023/07/08 09:25:33;;;;;;;6.25;2.42;;;40.80;37.10;;;;;;6116930;23;88405;-51
2023/07/08 09:27:59;;;;;;;3.03;1.88;;;40.30;36.30;;;;;;6116615;23;88793;-54
2023/07/08 09:30:26;;;;;;;4.55;2.63;;;39.00;37.80;;;;;;6117253;23;87466;-53
2023/07/08 09:32:52;;;;;;;5.70;2.50;;;39.20;37.70;;;;;;6115989;23;89229;-53
2023/07/08 09:35:24;;;;;;;3.03;1.73;;;38.80;37.70;;;;;;6116838;23;88443;-52
2023/07/08 09:37:50;;;;;;;8.55;2.50;;;37.90;38.10;;;;;;6116949;23;87521;-51
2023/07/08 09:40:21;;;;;;;6.68;4.05;;;37.40;39.10;;;;;;6116767;23;87551;-52
2023/07/08 09:42:52;;;;;;;3.47;1.80;;;37.00;39.40;;;;;;6117197;23;89617;-51
2023/07/08 09:45:23;;;;;;;3.83;1.48;;;35.90;38.70;;;;;;6115934;23;89890;-50
2023/07/08 09:47:53;;;;;;;4.03;1.67;;;35.10;40.70;;;;;;6117129;23;87353;-49
2023/07/08 09:50:28;;;;;;;4.65;1.58;;;34.90;40.80;;;;;;6118349;23;87923;-50
2023/07/08 09:52:59;;;;;;;;;;;34.80;40.70;;;;;;6123945;23;88768;-50
2023/07/08 09:55:25;;;;;;;2.65;1.48;;;34.50;41.40;;;;;;6125449;23;89665;-49
2023/07/08 09:57:53;;;;;;;3.17;1.48;;;35.20;41.60;;;;;;6124797;23;87546;-52
2023/07/08 10:00:28;;;;;;;2.65;1.98;;;37.00;39.20;;;;;;6123798;23;87407;-51
2023/07/08 10:02:58;;;;;;;3.63;2.15;;;38.30;37.90;;;;;;6116470;23;87543;-51
2023/07/08 10:05:27;;;;;;;4.82;3.28;;;39.10;37.20;;;;;;6117321;23;88837;-54
2023/07/08 10:07:56;;;;;;;5.20;2.00;;;38.90;36.70;;;;;;6117234;23;87582;-53
2023/07/08 10:10:37;;;;;;;3.47;1.73;;;38.60;38.10;;;;;;6115586;23;86925;-52
2023/07/08 10:13:11;;;;;;;5.30;1.80;;;37.60;37.30;;;;;;6116698;23;89117;-53
2023/07/08 10:15:41;;;;;;;4.63;1.45;;;37.30;39.00;;;;;;6121831;23;87442;-52
2023/07/08 10:18:15;;;;;;;5.45;1.15;;;36.30;39.60;;;;;;6115876;23;88220;-53
2023/07/08 10:20:55;;;;;;;5.78;1.02;;;35.90;39.30;;;;;;6117662;23;87639;-52
2023/07/08 10:23:48;;;;;;;2.58;1.30;;;35.70;40.60;;;;;;6116894;23;88236;-50
2023/07/08 10:26:21;;;;;;;4.68;1.38;;;35.40;39.20;;;;;;6117334;23;87971;-51
2023/07/08 10:29:11;;;;;;;2.47;1.48;;;35.10;39.70;;;;;;6116836;23;87543;-48
2023/07/08 10:32:05;;;;;;;2.80;1.10;;;35.10;41.00;;;;;;6110350;23;87657;-52
2023/07/08 10:34:50;;;;;;;9.23;1.48;;;35.20;41.60;;;;;;6112305;23;88441;-54
2023/07/08 10:37:22;;;;;;;2.38;1.42;;;34.60;41.70;;;;;;6116737;23;89442;-50
2023/07/08 10:40:14;;;;;;;5.60;1.30;;;33.80;42.20;;;;;;6121225;23;87327;-50
2023/07/08 10:42:42;;;;;;;4.00;3.00;;;33.70;44.50;;;;;;6113236;23;90196;-49
2023/07/08 10:45:16;;;;;;;2.88;1.52;;;33.70;44.80;;;;;;6119188;23;90157;-51
2023/07/08 10:47:54;;;;;;;1.85;0.85;;;33.60;44.60;;;;;;6122019;23;88795;-51
2023/07/08 10:50:19;;;;;;;4.15;0.95;;;33.70;44.80;;;;;;6123602;23;87314;-49
2023/07/08 10:52:51;;;;;;;2.83;0.93;;;33.30;45.20;;;;;;6123894;23;87395;-51
2023/07/08 10:55:43;;;;;;;4.53;2.08;;;32.90;44.90;;;;;;6122626;23;87605;-53
2023/07/08 10:58:25;;;;;;;3.47;1.30;;;32.50;46.20;;;;;;6123041;23;88000;-52
2023/07/08 11:01:26;;;;;;;2.17;1.20;;;32.10;46.60;;;;;;6123338;23;87452;-49
2023/07/08 11:04:18;;;;;;;2.50;1.50;;;31.60;47.90;;;;;;6089535;23;86793;-52
2023/07/08 11:06:52;;;;;;;2.30;1.20;;;31.70;47.90;;;;;;6124085;23;89664;-50
2023/07/08 11:09:28;;;;;;;2.53;1.75;;;31.50;47.00;;;;;;6119596;23;87327;-49
2023/07/08 11:12:29;;;;;;;3.80;1.00;;;31.30;48.20;;;;;;6112271;23;88666;-48
2023/07/08 11:14:55;;;;;;;2.95;1.17;;;31.50;49.80;;;;;;6113134;23;87466;-51
2023/07/08 11:17:25;;;;;;;3.83;0.85;;;31.70;48.90;;;;;;6110855;23;88564;-54
2023/07/08 11:20:00;;;;;;;4.07;0.90;;;31.90;47.90;;;;;;6112034;23;87918;-52
2023/07/08 11:22:29;;;;;;;6.05;1.00;;;31.50;49.60;;;;;;6112051;23;87593;-53
2023/07/08 11:24:57;;;;;;;3.92;0.75;;;31.30;50.00;;;;;;6112811;23;87780;-51
2023/07/08 11:27:38;;;;;;;2.40;0.93;;;31.10;50.80;;;;;;6112039;23;88292;-54
2023/07/08 11:30:10;;;;;;;2.58;0.88;;;30.90;49.70;;;;;;6113401;23;89063;-52
2023/07/08 11:32:37;;;;;;;2.58;0.90;;;30.70;51.70;;;;;;6112657;23;87714;-50
2023/07/08 11:35:07;;;;;;;3.97;0.85;;;30.70;51.10;;;;;;6113594;23;87547;-53
2023/07/08 11:37:33;;;;;;;3.47;1.00;;;30.90;50.70;;;;;;6113198;23;90380;-52
2023/07/08 11:40:17;;;;;;;2.13;0.93;;;30.90;49.50;;;;;;6112479;23;88770;-50
2023/07/08 11:42:48;;;;;;;2.83;1.08;;;30.80;50.20;;;;;;6112692;23;87270;-50
2023/07/08 11:45:31;;;;;;;3.10;0.77;;;30.20;50.60;;;;;;6111486;23;87553;-50
2023/07/08 11:48:28;;;;;;;4.00;0.70;;;30.10;51.80;;;;;;6114828;23;87869;-50
2023/07/08 11:50:54;;;;;;;3.30;0.93;;;30.30;52.00;;;;;;6106862;23;89413;-49
2023/07/08 11:53:29;;;;;;;5.40;1.23;;;30.50;52.10;;;;;;6114473;23;87516;-50
2023/07/08 11:56:07;;;;;;;3.38;1.10;;;30.70;52.00;;;;;;6115505;23;86624;-51
2023/07/08 11:58:50;;;;;;;2.53;0.88;;;31.00;51.60;;;;;;6116158;23;89506;-50
2023/07/08 12:01:34;;;;;;;4.22;0.98;;;31.20;51.90;;;;;;6116957;23;88438;-51
2023/07/08 12:04:09;;;;;;;2.42;0.82;;;31.00;51.80;;;;;;6119505;23;88644;-52
2023/07/08 12:06:35;;;;;;;3.22;1.10;;;31.00;51.30;;;;;;6119910;23;87692;-50
2023/07/08 12:09:14;;;;;;;4.25;1.50;;;31.30;51.40;;;;;;6118852;23;87478;-52
2023/07/08 12:11:44;;;;;;;4.28;0.93;;;31.50;52.50;;;;;;6120480;23;87978;-53
2023/07/08 12:14:10;;;;;;;3.50;1.02;;;31.40;51.50;;;;;;6119051;23;87495;-50
2023/07/08 12:16:36;;;;;;;3.10;0.90;;;31.30;51.50;;;;;;6117858;23;87637;-51
2023/07/08 12:19:07;;;;;;;4.15;1.38;;;31.40;51.40;;;;;;6120115;23;88013;-50
2023/07/08 12:21:36;;;;;;;2.45;0.90;;;31.40;51.70;;;;;;6119263;23;87279;-51
2023/07/08 12:24:06;;;;;;;5.15;0.77;;;31.30;50.20;;;;;;6119760;23;87333;-49
2023/07/08 12:26:35;;;;;;;2.72;1.02;;;31.30;50.00;;;;;;6120066;23;87909;-48
2023/07/08 12:29:02;;;;;;;6.32;1.00;;;31.30;50.50;;;;;;6119524;23;90360;-48
2023/07/08 12:31:28;;;;;;;3.20;0.73;;;31.30;51.20;;;;;;6120276;23;89642;-49
2023/07/08 12:33:55;;;;;;;3.85;1.05;;;31.20;51.80;;;;;;6118498;23;87026;-48
2023/07/08 12:36:27;;;;;;;4.05;1.27;;;31.20;51.40;;;;;;6116331;23;87981;-51
2023/07/08 12:38:55;;;;;;;4.55;1.00;;;31.10;51.20;;;;;;6114673;23;88811;-50
2023/07/08 12:41:28;;;;;;;2.15;1.25;;;31.00;52.10;;;;;;6115568;23;88301;-49
2023/07/08 12:43:55;;;;;;;7.72;1.15;;;31.10;51.90;;;;;;6114677;23;87229;-50
2023/07/08 12:46:22;;;;;;;3.08;1.00;;;31.10;52.20;;;;;;6117446;23;86686;-50
2023/07/08 12:48:48;;;;;;;3.85;0.90;;;31.00;51.60;;;;;;6118048;23;88092;-49
2023/07/08 12:51:23;;;;;;;2.58;0.75;;;31.10;50.30;;;;;;6121373;23;88030;-51
2023/07/08 12:53:50;;;;;;;5.10;1.13;;;31.00;51.40;;;;;;6116067;23;88570;-50
2023/07/08 12:56:17;;;;;;;3.05;0.90;;;31.20;51.80;;;;;;6114559;23;87671;-48
2023/07/08 12:58:50;;;;;;;2.60;1.02;;;31.00;50.90;;;;;;6115104;23;89004;-48
2023/07/08 13:01:21;;;;;;;2.45;1.00;;;30.90;51.30;;;;;;6114651;23;88634;-50
2023/07/08 13:03:50;;;;;;;2.85;0.98;;;30.80;50.90;;;;;;6115128;23;87822;-48
2023/07/08 13:06:20;;;;;;;2.85;0.90;;;30.80;51.50;;;;;;6114291;23;87698;-51
2023/07/08 13:08:46;;;;;;;4.15;1.05;;;30.90;51.00;;;;;;6113823;23;88666;-51
2023/07/08 13:11:15;;;;;;;3.70;1.00;;;31.00;50.30;;;;;;6113807;23;87910;-51
2023/07/08 13:13:56;;;;;;;6.70;2.28;;;31.00;51.20;;;;;;6117251;23;87582;-49
2023/07/08 13:16:26;;;;;;;4.75;0.90;;;31.20;51.30;;;;;;6116187;23;87924;-49
2023/07/08 13:18:51;;;;;;;3.08;0.93;;;31.30;49.80;;;;;;6114088;23;88937;-52
2023/07/08 13:21:17;;;;;;;2.25;0.88;;;31.40;51.00;;;;;;6113182;23;88781;-49
2023/07/08 13:23:43;;;;;;;3.53;1.45;;;31.40;50.70;;;;;;6113388;23;87509;-48
2023/07/08 13:26:19;;;;;;;5.22;1.10;;;31.40;51.60;;;;;;6116516;23;87548;-49
2023/07/08 13:28:45;;;;;;;3.45;1.10;;;31.40;51.80;;;;;;6116292;23;88143;-52
2023/07/08 13:31:31;;;;;;;4.15;0.80;;;31.40;52.30;;;;;;6114272;23;88606;-47
2023/07/08 13:33:57;;;;;;;6.75;1.40;;;31.30;52.10;;;;;;6116964;23;87375;-52
2023/07/08 13:36:35;;;;;;;2.95;1.10;;;31.30;51.70;;;;;;6115593;23;87052;-50
2023/07/08 13:39:08;;;;;;;5.38;1.05;;;31.30;52.20;;;;;;6117516;23;89438;-52
2023/07/08 13:41:35;;;;;;;4.03;0.93;;;31.20;52.10;;;;;;6117617;23;87600;-48
2023/07/08 13:44:08;;;;;;;3.97;1.20;;;31.10;52.90;;;;;;6118887;23;88719;-52
2023/07/08 13:46:39;;;;;;;3.70;1.30;;;31.20;53.50;;;;;;6115498;23;87548;-48
2023/07/08 13:49:15;;;;;;;4.70;0.85;;;31.40;54.90;;;;;;6116633;23;88007;-51
2023/07/08 13:51:42;;;;;;;5.03;1.38;;;31.30;53.10;;;;;;6113826;23;89511;-53
2023/07/08 13:54:20;;;;;;;3.00;1.08;;;31.20;51.90;;;;;;6112522;23;87549;-49
2023/07/08 13:56:47;;;;;;;2.63;1.05;;;31.10;52.30;;;;;;6116688;23;87790;-49
2023/07/08 13:59:22;;;;;;;3.15;0.95;;;31.10;51.90;;;;;;6116493;23;88452;-51
2023/07/08 14:01:54;;;;;;;3.75;0.93;;;31.00;51.10;;;;;;6114067;23;88215;-51
2023/07/08 14:04:25;;;;;;;3.13;1.10;;;30.80;50.60;;;;;;6123428;23;87839;-50
2023/07/08 14:06:50;;;;;;;5.15;1.02;;;30.90;51.80;;;;;;6122917;23;87710;-48
2023/07/08 14:09:19;;;;;;;6.43;1.27;;;31.10;52.80;;;;;;6122698;23;90224;-51
2023/07/08 14:11:45;;;;;;;3.65;1.00;;;31.30;51.90;;;;;;6110038;23;88858;-53
2023/07/08 14:14:11;;;;;;;8.32;1.40;;;31.40;50.90;;;;;;6114056;23;87491;-50
2023/07/08 14:16:43;;;;;;;7.40;1.08;;;31.50;51.10;;;;;;6112556;23;87814;-53
2023/07/08 14:19:39;;;;;;;4.63;1.70;;;31.50;51.70;;;;;;6113554;23;88313;-51
2023/07/08 14:22:14;;;;;;;5.97;2.05;;;31.50;52.70;;;;;;6115071;23;88407;-49
2023/07/08 14:24:43;;;;;;;7.30;1.15;;;31.50;51.90;;;;;;6116579;23;87664;-51
2023/07/08 14:27:12;;;;;;;2.95;1.20;;;31.50;51.60;;;;;;6116969;23;86794;-53
2023/07/08 14:29:39;;;;;;;3.45;1.08;;;31.50;52.30;;;;;;6115884;23;90329;-50
2023/07/08 14:32:10;;;;;;;9.38;1.05;;;31.30;50.80;;;;;;6114081;23;88359;-52
2023/07/08 14:34:35;;;;;;;4.32;1.20;;;31.10;51.10;;;;;;6115204;23;88728;-51
2023/07/08 14:37:01;;;;;;;6.25;1.27;;;31.20;51.90;;;;;;6114342;23;87831;-49
2023/07/08 14:39:27;;;;;;;3.80;1.15;;;31.10;52.10;;;;;;6114534;23;87790;-50
2023/07/08 14:41:52;;;;;;;4.03;1.10;;;31.10;52.00;;;;;;6113360;23;87519;-52
2023/07/08 14:44:20;;;;;;;4.78;1.20;;;31.00;51.00;;;;;;6113025;23;87579;-50
2023/07/08 14:46:45;;;;;;;3.33;1.33;;;30.80;54.00;;;;;;6117182;23;87545;-49
2023/07/08 14:49:16;;;;;;;7.82;1.02;;;30.80;51.60;;;;;;6115974;23;88292;-53
2023/07/08 14:51:42;;;;;;;6.35;0.88;;;30.70;54.20;;;;;;6115331;23;88258;-51
2023/07/08 14:54:08;;;;;;;7.78;1.60;;;30.70;53.90;;;;;;6115187;23;87481;-53
2023/07/08 14:56:33;;;;;;;6.28;1.15;;;30.60;53.80;;;;;;6115303;23;87341;-52
2023/07/08 14:59:00;;;;;;;8.02;1.05;;;30.70;53.00;;;;;;6112496;23;88838;-52
2023/07/08 15:01:29;;;;;;;12.13;2.13;;;30.70;51.80;;;;;;6114274;23;88625;-51
2023/07/08 15:03:58;;;;;;;5.68;1.27;;;30.60;55.00;;;;;;6114951;23;87480;-50
2023/07/08 15:06:24;;;;;;;9.70;1.63;;;30.70;52.90;;;;;;6113682;23;87937;-51
2023/07/08 15:08:50;;;;;;;5.85;1.40;;;30.70;54.00;;;;;;6115382;23;88110;-51
2023/07/08 15:11:17;;;;;;;10.02;1.50;;;30.60;52.10;;;;;;6122512;23;88525;-49
2023/07/08 15:13:45;;;;;;;3.58;1.15;;;30.60;54.10;;;;;;6121613;23;87576;-50
2023/07/08 15:16:15;;;;;;;9.10;1.48;;;30.50;51.80;;;;;;6117315;23;86567;-52
2023/07/08 15:18:41;;;;;;;6.28;1.75;;;30.50;52.10;;;;;;6120041;23;89309;-53
2023/07/08 15:21:12;;;;;;;9.25;1.60;;;30.60;54.60;;;;;;6116980;23;87739;-51
2023/07/08 15:23:37;;;;;;;6.43;1.77;;;30.60;54.40;;;;;;6114334;23;88550;-52
2023/07/08 15:26:04;;;;;;;4.40;1.02;;;30.50;54.50;;;;;;6121664;23;87573;-49
2023/07/08 15:28:50;;;;;;;3.60;1.00;;;30.50;52.30;;;;;;6127046;23;88014;-49
2023/07/08 15:31:24;;;;;;;4.68;1.33;;;30.60;54.20;;;;;;6126676;23;87278;-49
2023/07/08 15:33:52;;;;;;;9.52;1.35;;;30.50;53.30;;;;;;6127928;23;87527;-48
2023/07/08 15:36:18;;;;;;;6.85;1.42;;;30.50;52.70;;;;;;6119940;23;87649;-51
2023/07/08 15:38:44;;;;;;;4.47;1.40;;;30.40;54.40;;;;;;6115660;23;88926;-51
2023/07/08 15:41:30;;;;;;;4.50;1.08;;;30.50;53.60;;;;;;6115897;23;87170;-49
2023/07/08 15:43:56;;;;;;;4.00;1.08;;;30.50;55.90;;;;;;6113992;23;87423;-52
2023/07/08 15:46:26;;;;;;;4.40;1.23;;;30.40;53.80;;;;;;6117732;23;87935;-49
2023/07/08 15:48:52;;;;;;;7.45;2.20;;;30.40;51.50;;;;;;6122080;23;88990;-53
2023/07/08 15:51:18;;;;;;;5.10;1.92;;;30.40;53.90;;;;;;6127990;23;88637;-47
2023/07/08 15:53:44;;;;;;;4.10;1.08;;;30.50;52.00;;;;;;6129043;23;87505;-48
2023/07/08 15:56:15;;;;;;;4.03;1.13;;;30.50;52.60;;;;;;6128908;23;86990;-48
2023/07/08 15:58:43;;;;;;;6.18;1.38;;;30.40;52.30;;;;;;6124424;23;90912;-50
2023/07/08 16:01:17;;;;;;;4.57;1.05;;;30.30;52.80;;;;;;6117033;23;89297;-50
2023/07/08 16:03:42;;;;;;;6.50;1.13;;;30.30;53.10;;;;;;6116934;23;87736;-50
2023/07/08 16:06:08;;;;;;;4.72;1.33;;;30.30;52.60;;;;;;6117795;23;86777;-49
2023/07/08 16:08:34;;;;;;;3.40;1.23;;;30.30;51.70;;;;;;6117375;23;88009;-52
2023/07/08 16:11:10;;;;;;;5.03;1.08;;;30.20;52.90;;;;;;6116643;23;89362;-51
2023/07/08 16:13:37;;;;;;;4.57;1.27;;;30.30;53.50;;;;;;6116417;23;88759;-50
2023/07/08 16:16:03;;;;;;;3.05;1.58;;;30.30;53.20;;;;;;6120093;23;87483;-50